Time;durP1;ratioP1;P1;durP2;ratioP2;P2;SDS_P1;SDS_P2;PMS_P1;PMS_P2;Temp;Humidity;BMP_temperature;BMP_pressure;BME280_temperature;BME280_humidity;BME280_pressure;Samples;Min_cycle;Max_cycle;Signal;HPM_P1;HPM_P2
2022/02/26 00:01:57;;;;;;;30.70;4.55;;;;;;;12.12;90.30;103055.47;4915560;29;20065;-52
2022/02/26 00:04:24;;;;;;;25.63;4.47;;;;;;;11.91;94.04;103051.16;4911986;29;20052;-51
2022/02/26 00:06:49;;;;;;;31.27;6.63;;;;;;;12.09;90.65;103057.59;4908732;29;20156;-51
2022/02/26 00:09:14;;;;;;;25.20;4.93;;;;;;;12.05;90.27;103059.75;4917474;29;20056;-50
2022/02/26 00:11:40;;;;;;;26.67;5.97;;;;;;;12.30;87.85;103060.00;4905951;29;20025;-51
2022/02/26 00:14:06;;;;;;;28.53;5.30;;;;;;;12.36;85.69;103059.38;4914329;29;20033;-50
2022/02/26 00:16:33;;;;;;;36.80;5.13;;;;;;;12.31;86.09;103065.19;4912604;29;20032;-48
2022/02/26 00:19:02;;;;;;;16.65;4.75;;;;;;;12.15;88.44;103062.38;4907503;29;20037;-51
2022/02/26 00:21:27;;;;;;;28.40;5.90;;;;;;;12.14;88.08;103064.19;4903821;29;20065;-52
2022/02/26 00:23:53;;;;;;;25.27;4.68;;;;;;;12.25;85.81;103073.03;4915630;29;20041;-52
2022/02/26 00:26:22;;;;;;;28.87;5.13;;;;;;;12.17;86.33;103069.25;4910669;29;20051;-51
2022/02/26 00:28:48;;;;;;;39.58;5.78;;;;;;;12.13;86.55;103070.56;4908721;29;20064;-50
2022/02/26 00:31:13;;;;;;;26.67;5.82;;;;;;;12.21;83.39;103067.13;4917545;29;20044;-48
2022/02/26 00:33:39;;;;;;;21.27;5.45;;;;;;;12.13;85.15;103069.72;4917444;29;20029;-49
2022/02/26 00:36:05;;;;;;;14.17;4.53;;;;;;;12.20;85.61;103073.47;4908563;29;20060;-51
2022/02/26 00:38:30;;;;;;;32.17;6.57;;;;;;;12.24;83.83;103071.34;4910544;29;20036;-49
2022/02/26 00:40:56;;;;;;;27.83;4.80;;;;;;;12.16;83.95;103075.63;4898965;29;20137;-50
2022/02/26 00:43:22;;;;;;;21.00;5.73;;;;;;;12.24;82.64;103074.84;4904898;29;20041;-48
2022/02/26 00:45:47;;;;;;;20.27;4.38;;;;;;;12.22;83.74;103081.34;4916206;29;20048;-50
2022/02/26 00:48:13;;;;;;;24.10;4.97;;;;;;;12.13;84.53;103078.59;4909521;29;20059;-50
2022/02/26 00:50:38;;;;;;;25.63;5.43;;;;;;;11.88;86.87;103088.19;4893140;29;20109;-48
2022/02/26 00:53:04;;;;;;;30.33;4.40;;;;;;;12.17;88.41;103089.88;4915769;29;20041;-48
2022/02/26 00:55:30;;;;;;;16.73;4.77;;;;;;;11.85;85.87;103094.69;4904529;29;20061;-50
2022/02/26 00:57:56;;;;;;;13.95;3.47;;;;;;;12.11;85.51;103090.47;4915161;29;20066;-50
2022/02/26 01:00:22;;;;;;;28.98;5.68;;;;;;;11.93;86.12;103090.41;4901583;29;20048;-50
2022/02/26 01:02:48;;;;;;;17.90;4.40;;;;;;;12.25;84.77;103095.31;4913706;29;20044;-50
2022/02/26 01:05:14;;;;;;;12.50;3.90;;;;;;;11.71;88.08;103103.19;4904966;29;20056;-47
2022/02/26 01:07:40;;;;;;;28.65;5.10;;;;;;;11.36;97.11;103110.91;4885170;29;20041;-50
2022/02/26 01:10:07;;;;;;;29.92;5.57;;;;;;;11.49;96.19;103121.31;4907675;29;20049;-51
2022/02/26 01:12:33;;;;;;;29.25;5.15;;;;;;;11.55;94.78;103114.53;4909977;29;20076;-48
2022/02/26 01:14:58;;;;;;;19.07;4.10;;;;;;;11.73;90.02;103110.09;4898431;29;20041;-48
2022/02/26 01:17:24;;;;;;;25.97;5.57;;;;;;;11.58;95.45;103124.97;4910611;29;20029;-49
2022/02/26 01:19:50;;;;;;;29.03;5.93;;;;;;;11.38;98.31;103124.19;4908985;29;20043;-49
2022/02/26 01:22:16;;;;;;;;;;;;;;;10.93;100.00;103122.97;4911830;29;20096;-50
2022/02/26 01:24:42;;;;;;;21.30;5.32;;;;;;;11.79;95.95;103127.44;4908460;29;19927;-52
2022/02/26 01:27:08;;;;;;;23.65;5.93;;;;;;;11.46;100.00;103121.63;4911024;29;20033;-49
2022/02/26 01:29:35;;;;;;;29.60;8.02;;;;;;;11.93;93.06;103114.53;4910972;29;20040;-51
2022/02/26 01:32:01;;;;;;;23.95;5.22;;;;;;;11.98;89.05;103126.50;4908299;29;20060;-52
2022/02/26 01:34:27;;;;;;;26.98;5.20;;;;;;;11.86;89.48;103119.63;4911290;29;20036;-52
2022/02/26 01:36:52;;;;;;;20.37;5.17;;;;;;;11.86;90.90;103119.63;4891130;29;20048;-49
2022/02/26 01:39:23;;;;;;;21.17;5.50;;;;;;;11.95;85.60;103120.59;4916239;29;20069;-48
2022/02/26 01:41:50;;;;;;;22.27;6.38;;;;;;;11.87;86.84;103118.63;4905116;29;20056;-54
2022/02/26 01:44:15;;;;;;;25.15;5.07;;;;;;;11.88;84.64;103123.03;4911683;29;20048;-49
2022/02/26 01:46:41;;;;;;;18.07;4.87;;;;;;;11.56;91.35;103127.81;4900853;29;20052;-51
2022/02/26 01:49:08;;;;;;;23.55;5.40;;;;;;;11.62;89.57;103127.22;4914974;29;20037;-51
2022/02/26 01:51:34;;;;;;;21.90;5.03;;;;;;;11.71;85.84;103114.78;4903794;29;20069;-47
2022/02/26 01:53:59;;;;;;;25.23;6.07;;;;;;;11.65;85.50;103115.38;4918453;29;20036;-50
2022/02/26 01:56:25;;;;;;;22.43;5.27;;;;;;;11.69;84.98;103121.25;4910045;29;20037;-48
2022/02/26 01:58:51;;;;;;;24.45;5.90;;;;;;;11.73;82.78;103130.69;4912754;29;20056;-52
2022/02/26 02:01:16;;;;;;;23.77;6.40;;;;;;;11.70;84.25;103128.31;4919296;29;20040;-52
2022/02/26 02:03:41;;;;;;;23.93;6.10;;;;;;;11.64;86.35;103129.72;4902534;29;20044;-49
2022/02/26 02:06:07;;;;;;;37.43;8.70;;;;;;;11.42;91.69;103126.44;4912871;29;20045;-51
2022/02/26 02:08:32;;;;;;;20.00;6.73;;;;;;;11.48;92.15;103120.50;4910086;29;20036;-49
2022/02/26 02:10:58;;;;;;;21.52;5.60;;;;;;;11.60;89.72;103120.31;4914605;29;20036;-47
2022/02/26 02:13:24;;;;;;;35.00;6.93;;;;;;;11.69;85.93;103119.44;4911998;29;20040;-49
2022/02/26 02:15:52;;;;;;;36.10;7.40;;;;;;;11.69;84.61;103113.22;4903586;29;20040;-51
2022/02/26 02:18:18;;;;;;;23.00;6.18;;;;;;;11.62;89.03;103116.50;4907589;29;20052;-49
2022/02/26 02:20:45;;;;;;;17.77;5.80;;;;;;;11.68;84.52;103108.84;4913707;29;20096;-52
2022/02/26 02:23:11;;;;;;;;;;;;;;;11.55;88.44;103104.69;4903649;29;20045;-51
2022/02/26 02:25:38;;;;;;;23.92;5.60;;;;;;;11.32;95.41;103107.72;4904707;29;19915;-48
2022/02/26 02:28:05;;;;;;;24.85;6.28;;;;;;;11.49;92.00;103091.84;4914888;29;20040;-51
2022/02/26 02:30:32;;;;;;;21.15;6.22;;;;;;;11.62;88.96;103089.69;4909348;29;20033;-47
2022/02/26 02:32:59;;;;;;;25.85;6.50;;;;;;;11.56;85.96;103097.47;4904210;29;20113;-51
2022/02/26 02:35:43;;;;;;;23.55;6.93;;;;;;;11.47;87.00;103100.03;4913702;29;20052;-52
2022/02/26 02:38:11;;;;;;;25.90;6.43;;;;;;;11.41;88.03;103100.59;4912409;29;20045;-52
2022/02/26 02:40:38;;;;;;;24.67;6.53;;;;;;;11.31;91.14;103110.53;4910271;29;20052;-50
2022/02/26 02:43:05;;;;;;;30.30;6.90;;;;;;;11.28;94.69;103114.31;4905215;29;20043;-52
2022/02/26 02:45:32;;;;;;;29.88;6.82;;;;;;;11.41;87.51;103118.53;4915293;29;20096;-51
2022/02/26 02:47:58;;;;;;;24.60;7.05;;;;;;;11.30;91.90;103111.50;4901552;29;20032;-51
2022/02/26 02:50:24;;;;;;;32.00;7.03;;;;;;;11.21;89.57;103128.44;4899130;29;20112;-49
2022/02/26 02:52:50;;;;;;;27.77;7.80;;;;;;;11.19;95.62;103118.72;4918673;29;20044;-50
2022/02/26 02:55:16;;;;;;;27.70;7.53;;;;;;;10.83;95.71;103114.94;4903489;29;20288;-53
2022/02/26 02:57:45;;;;;;;25.55;7.65;;;;;;;11.28;95.69;103114.31;4915254;29;20093;-52
2022/02/26 03:00:13;;;;;;;37.15;8.13;;;;;;;11.33;94.13;103108.53;4906379;29;20049;-52
2022/02/26 03:02:43;;;;;;;25.17;8.10;;;;;;;11.22;100.00;103095.31;4908137;29;20036;-52
2022/02/26 03:05:10;;;;;;;28.00;9.95;;;;;;;11.26;100.00;103100.22;4913862;29;20103;-53
2022/02/26 03:07:36;;;;;;;24.83;8.00;;;;;;;11.58;92.88;103107.06;4904686;29;20118;-47
2022/02/26 03:10:06;;;;;;;18.73;7.37;;;;;;;11.30;98.77;103109.69;4916871;29;20041;-47
2022/02/26 03:12:31;;;;;;;23.52;10.48;;;;;;;11.02;98.78;103114.09;4912877;29;20283;-45
2022/02/26 03:14:57;;;;;;;27.00;9.02;;;;;;;11.24;94.62;103122.81;4909780;29;20068;-49
2022/02/26 03:17:24;;;;;;;25.17;6.77;;;;;;;10.78;96.54;103130.56;4919128;29;20045;-48
2022/02/26 03:19:49;;;;;;;29.95;7.45;;;;;;;11.10;97.83;103138.31;4905653;29;20100;-49
2022/02/26 03:22:17;;;;;;;25.10;7.20;;;;;;;10.82;100.00;103132.84;4905183;29;20411;-49
2022/02/26 03:24:43;;;;;;;21.98;7.68;;;;;;;10.84;100.00;103141.56;4913157;29;20048;-49
2022/02/26 03:27:08;;;;;;;27.85;9.85;;;;;;;10.87;100.00;103148.47;4913622;29;20044;-49
2022/02/26 03:29:34;;;;;;;28.63;8.20;;;;;;;10.90;100.00;103154.38;4917741;29;20068;-50
2022/02/26 03:31:59;;;;;;;23.67;8.90;;;;;;;11.16;100.00;103153.81;4900820;29;20096;-48
2022/02/26 03:34:25;;;;;;;34.30;10.83;;;;;;;11.23;100.00;103158.63;4911633;29;20044;-49
2022/02/26 03:36:51;;;;;;;23.13;8.13;;;;;;;11.03;100.00;103164.81;4910515;29;20040;-51
2022/02/26 03:39:18;;;;;;;32.63;8.57;;;;;;;11.27;100.00;103166.19;4918044;29;20064;-48
2022/02/26 03:41:44;;;;;;;28.70;8.55;;;;;;;11.12;100.00;103163.13;4906092;29;20032;-48
2022/02/26 03:44:10;;;;;;;34.83;13.30;;;;;;;10.89;100.00;103166.06;4915347;29;20037;-49
2022/02/26 03:46:37;;;;;;;26.42;8.32;;;;;;;11.26;100.00;103179.75;4912702;29;20048;-48
2022/02/26 03:49:05;;;;;;;34.55;11.63;;;;;;;10.88;100.00;103190.34;4921565;29;20073;-46
2022/02/26 03:51:31;;;;;;;32.83;11.25;;;;;;;10.30;100.00;103191.84;4906059;29;20040;-48
2022/02/26 03:53:57;;;;;;;42.80;15.18;;;;;;;10.38;100.00;103205.41;4921528;29;20037;-50
2022/02/26 03:56:23;;;;;;;41.50;13.17;;;;;;;10.46;100.00;103205.59;4913754;29;20068;-48
2022/02/26 03:58:51;;;;;;;35.30;14.60;;;;;;;10.54;100.00;103202.25;4914079;29;20294;-47
2022/02/26 04:01:18;;;;;;;43.38;14.68;;;;;;;10.71;100.00;103202.53;4906753;29;20036;-51
2022/02/26 04:03:44;;;;;;;37.33;13.23;;;;;;;10.71;100.00;103206.06;4918059;29;20040;-50
2022/02/26 04:06:11;;;;;;;38.45;16.55;;;;;;;10.49;100.00;103214.34;4908992;29;20051;-48
2022/02/26 04:08:37;;;;;;;37.15;16.60;;;;;;;10.67;100.00;103204.66;4911687;29;20134;-47
2022/02/26 04:11:04;;;;;;;37.13;15.73;;;;;;;10.72;100.00;103207.78;4915641;29;20036;-51
2022/02/26 04:13:30;;;;;;;41.88;15.45;;;;;;;10.95;100.00;103214.69;4905775;29;20053;-51
2022/02/26 04:15:55;;;;;;;40.45;17.65;;;;;;;10.55;100.00;103227.16;4917082;29;20037;-49
2022/02/26 04:18:21;;;;;;;56.47;17.38;;;;;;;9.92;100.00;103228.13;4909638;29;20040;-50
2022/02/26 04:20:47;;;;;;;39.50;18.20;;;;;;;10.31;100.00;103222.97;4910136;29;20066;-51
2022/02/26 04:23:12;;;;;;;49.00;18.70;;;;;;;10.38;100.00;103213.44;4916461;29;20043;-46
2022/02/26 04:25:38;;;;;;;55.58;19.45;;;;;;;10.10;100.00;103215.84;4905466;29;20064;-51
2022/02/26 04:28:05;;;;;;;51.70;19.67;;;;;;;10.42;100.00;103217.56;4915556;29;20104;-49
2022/02/26 04:30:30;;;;;;;52.53;19.33;;;;;;;10.51;100.00;103228.41;4911002;29;20036;-48
2022/02/26 04:32:56;;;;;;;38.05;17.10;;;;;;;10.37;100.00;103237.63;4908898;29;20070;-49
2022/02/26 04:35:22;;;;;;;47.53;18.50;;;;;;;10.54;100.00;103239.72;4917557;29;20073;-51
2022/02/26 04:37:48;;;;;;;40.83;20.02;;;;;;;10.28;100.00;103233.94;4902126;29;20046;-50
2022/02/26 04:40:15;;;;;;;40.28;19.08;;;;;;;10.69;100.00;103234.81;4908638;29;20041;-47
2022/02/26 04:42:41;;;;;;;;;;;;;;;10.70;100.00;103235.63;4911312;29;20090;-51
2022/02/26 04:45:09;;;;;;;53.40;18.75;;;;;;;10.58;100.00;103240.25;4899007;29;20005;-50
2022/02/26 04:47:35;;;;;;;54.25;21.27;;;;;;;10.60;100.00;103243.63;4903939;29;20053;-52
2022/02/26 04:50:00;;;;;;;47.65;20.83;;;;;;;10.66;100.00;103244.94;4901248;29;20044;-49
2022/02/26 04:52:26;;;;;;;44.77;20.77;;;;;;;10.52;100.00;103240.81;4893624;29;20047;-49
2022/02/26 04:54:51;;;;;;;43.07;18.67;;;;;;;10.71;100.00;103240.88;4904243;29;20279;-52
2022/02/26 04:57:17;;;;;;;46.83;19.30;;;;;;;10.44;100.00;103237.00;4906018;29;20060;-54
2022/02/26 04:59:42;;;;;;;34.77;17.27;;;;;;;10.81;100.00;103245.38;4917250;29;20041;-50
2022/02/26 05:02:08;;;;;;;40.67;18.30;;;;;;;10.74;99.84;103243.28;4907206;29;20280;-52
2022/02/26 05:04:33;;;;;;;46.83;18.23;;;;;;;10.71;100.00;103240.88;4911391;29;20097;-54
2022/02/26 05:06:59;;;;;;;37.73;16.80;;;;;;;10.57;100.00;103238.56;4914013;29;20068;-51
2022/02/26 05:09:24;;;;;;;41.80;18.70;;;;;;;10.47;100.00;103239.41;4904831;29;20336;-51
2022/02/26 05:11:50;;;;;;;50.23;16.73;;;;;;;10.63;100.00;103237.19;4917156;29;20052;-51
2022/02/26 05:14:15;;;;;;;40.95;17.73;;;;;;;10.45;100.00;103236.00;4907939;29;20036;-50
2022/02/26 05:16:41;;;;;;;45.37;18.17;;;;;;;10.33;100.00;103239.72;4903712;29;20108;-51
2022/02/26 05:19:06;;;;;;;49.60;18.70;;;;;;;10.40;100.00;103245.38;4907018;29;20048;-50
2022/02/26 05:21:32;;;;;;;52.10;20.13;;;;;;;10.21;100.00;103254.19;4900175;29;20048;-47
2022/02/26 05:23:57;;;;;;;51.33;19.23;;;;;;;10.30;100.00;103258.72;4904641;29;20108;-48
2022/02/26 05:26:23;;;;;;;32.00;15.33;;;;;;;9.98;100.00;103255.19;4912483;29;20040;-50
2022/02/26 05:28:48;;;;;;;47.93;18.43;;;;;;;10.08;100.00;103257.06;4911988;29;20279;-47
2022/02/26 05:31:14;;;;;;;52.27;19.57;;;;;;;10.20;100.00;103261.34;4916891;29;20298;-49
2022/02/26 05:33:39;;;;;;;40.80;18.03;;;;;;;10.26;100.00;103263.47;4903303;29;20041;-47
2022/02/26 05:36:05;;;;;;;55.30;19.00;;;;;;;10.41;100.00;103260.47;4914754;29;20052;-50
2022/02/26 05:38:31;;;;;;;42.28;18.83;;;;;;;10.69;100.00;103258.91;4909292;29;20064;-49
2022/02/26 05:40:57;;;;;;;45.60;18.05;;;;;;;10.54;100.00;103260.25;4907928;29;20041;-48
2022/02/26 05:43:23;;;;;;;49.13;19.63;;;;;;;10.38;100.00;103274.97;4916029;29;20051;-51
2022/02/26 05:45:49;;;;;;;;;;;;;;;10.30;100.00;103274.75;4904367;29;20348;-54
2022/02/26 05:48:15;;;;;;;40.50;16.93;;;;;;;10.09;100.00;103286.34;4919555;29;19919;-49
2022/02/26 05:50:40;;;;;;;43.60;17.40;;;;;;;10.29;100.00;103273.94;4909851;29;20047;-51
2022/02/26 05:53:06;;;;;;;35.37;14.00;;;;;;;10.36;100.00;103274.22;4913808;29;20036;-48
2022/02/26 05:55:32;;;;;;;38.28;17.30;;;;;;;10.44;100.00;103277.13;4903489;29;20309;-48
2022/02/26 05:57:58;;;;;;;34.73;13.50;;;;;;;10.67;100.00;103287.63;4915307;29;20045;-46
2022/02/26 06:00:24;;;;;;;44.25;17.27;;;;;;;10.57;100.00;103286.72;4908176;29;20126;-50
2022/02/26 06:02:50;;;;;;;;;;;;;;;10.52;100.00;103286.28;4909119;29;20037;-50
2022/02/26 06:05:15;;;;;;;49.43;16.27;;;;;;;10.35;100.00;103299.28;4914644;29;19994;-50
2022/02/26 06:07:41;;;;;;;46.70;18.00;;;;;;;10.29;100.00;103294.47;4903665;29;20037;-50
2022/02/26 06:10:07;;;;;;;37.92;16.65;;;;;;;10.47;100.00;103297.38;4914122;29;20096;-49
2022/02/26 06:12:33;;;;;;;52.38;17.23;;;;;;;10.40;100.00;103307.81;4908937;29;20085;-48
2022/02/26 06:14:58;;;;;;;39.70;18.23;;;;;;;10.49;100.00;103306.13;4907512;29;20100;-48
2022/02/26 06:17:24;;;;;;;39.90;17.10;;;;;;;10.33;100.00;103307.44;4915748;29;20049;-46
2022/02/26 06:19:49;;;;;;;40.83;16.47;;;;;;;10.45;100.00;103302.03;4903426;29;20115;-49
2022/02/26 06:22:15;;;;;;;42.42;18.17;;;;;;;10.30;100.00;103304.19;4913143;29;20139;-50
2022/02/26 06:24:41;;;;;;;43.13;16.63;;;;;;;10.47;100.00;103310.78;4909690;29;20108;-50
2022/02/26 06:27:07;;;;;;;39.17;16.70;;;;;;;10.48;100.00;103309.78;4906245;29;20070;-48
2022/02/26 06:29:33;;;;;;;50.70;17.05;;;;;;;10.34;100.00;103308.28;4915833;29;20045;-47
2022/02/26 06:31:58;;;;;;;36.03;16.13;;;;;;;10.38;100.00;103311.56;4887805;29;20064;-49
2022/02/26 06:34:23;;;;;;;40.43;16.87;;;;;;;10.37;99.87;103318.72;4912062;29;20033;-48
2022/02/26 06:36:49;;;;;;;45.80;17.67;;;;;;;10.32;99.78;103334.31;4910668;29;20115;-47
2022/02/26 06:39:15;;;;;;;36.80;15.43;;;;;;;10.29;100.00;103329.25;4905149;29;20052;-49
2022/02/26 06:41:41;;;;;;;44.37;15.60;;;;;;;10.19;100.00;103332.72;4916784;29;20048;-47
2022/02/26 06:44:06;;;;;;;42.55;18.33;;;;;;;10.25;100.00;103328.66;4911251;29;20312;-47
2022/02/26 06:46:37;;;;;;;35.73;14.97;;;;;;;10.47;99.30;103340.19;4916995;29;20041;-50
2022/02/26 06:49:04;;;;;;;39.80;16.80;;;;;;;10.43;97.63;103336.97;4918600;29;20303;-49
2022/02/26 06:51:32;;;;;;;40.05;15.85;;;;;;;10.44;96.00;103346.69;4909313;29;20048;-49
2022/02/26 06:53:57;;;;;;;41.10;17.92;;;;;;;10.39;96.20;103342.66;4921249;29;20037;-49
2022/02/26 06:56:23;;;;;;;32.17;14.40;;;;;;;10.39;95.01;103350.69;4913289;29;20104;-52
2022/02/26 06:58:54;;;;;;;35.03;15.07;;;;;;;10.33;95.72;103357.41;4914664;29;20060;-48
2022/02/26 07:01:20;;;;;;;38.33;15.43;;;;;;;10.35;96.11;103355.44;4920305;29;20073;-52
2022/02/26 07:03:46;;;;;;;32.47;15.20;;;;;;;10.11;99.58;103351.22;4909406;29;20045;-49
2022/02/26 07:06:11;;;;;;;37.97;14.87;;;;;;;10.02;100.00;103346.66;4919579;29;20051;-51
2022/02/26 07:08:36;;;;;;;42.57;17.37;;;;;;;10.30;98.32;103349.66;4915062;29;20040;-50
2022/02/26 07:11:02;;;;;;;43.47;15.40;;;;;;;10.40;96.07;103363.09;4912264;29;20041;-47
2022/02/26 07:13:27;;;;;;;34.60;16.23;;;;;;;10.47;95.03;103362.47;4924377;29;20040;-49
2022/02/26 07:15:53;;;;;;;32.30;15.47;;;;;;;10.53;94.64;103349.53;4909257;29;20092;-50
2022/02/26 07:18:19;;;;;;;34.53;15.10;;;;;;;10.54;95.50;103345.88;4924900;29;20044;-48
2022/02/26 07:20:44;;;;;;;36.83;17.47;;;;;;;10.50;97.81;103364.03;4915244;29;20138;-49
2022/02/26 07:23:10;;;;;;;32.00;16.13;;;;;;;10.51;99.86;103372.91;4918844;29;20041;-50
2022/02/26 07:25:37;;;;;;;28.08;15.27;;;;;;;10.88;98.83;103364.34;4908800;29;20303;-52
2022/02/26 07:28:02;;;;;;;31.58;14.27;;;;;;;10.98;98.71;103351.81;4920709;29;20045;-51
2022/02/26 07:30:28;;;;;;;31.10;16.30;;;;;;;10.98;100.00;103359.84;4913428;29;20136;-47
2022/02/26 07:32:54;;;;;;;31.85;14.70;;;;;;;11.13;100.00;103365.66;4913962;29;20036;-50
2022/02/26 07:35:20;;;;;;;34.05;14.02;;;;;;;11.12;100.00;103363.97;4920150;29;20037;-48
2022/02/26 07:37:46;;;;;;;33.27;14.90;;;;;;;11.00;100.00;103357.88;4909177;29;20047;-49
2022/02/26 07:40:12;;;;;;;30.38;14.98;;;;;;;11.25;100.00;103358.38;4919325;29;20093;-47
2022/02/26 07:42:38;;;;;;;61.10;14.95;;;;;;;11.26;100.00;103360.06;4914719;29;20044;-51
2022/02/26 07:45:05;;;;;;;51.45;15.48;;;;;;;11.22;100.00;103368.53;4924437;29;20045;-47
2022/02/26 07:47:32;;;;;;;52.40;14.88;;;;;;;11.39;100.00;103370.50;4908969;29;20100;-48
2022/02/26 07:49:58;;;;;;;39.80;14.43;;;;;;;11.46;100.00;103363.63;4909070;29;20032;-50
2022/02/26 07:52:23;;;;;;;45.07;17.07;;;;;;;11.49;100.00;103370.53;4924638;29;20100;-49
2022/02/26 07:54:51;;;;;;;52.40;18.93;;;;;;;11.58;100.00;103372.38;4910322;29;20077;-51
2022/02/26 07:57:17;;;;;;;34.95;14.43;;;;;;;11.66;100.00;103378.88;4916449;29;20278;-50
2022/02/26 07:59:43;;;;;;;71.72;14.48;;;;;;;11.73;100.00;103385.34;4905419;29;20056;-49
2022/02/26 08:02:09;;;;;;;86.82;16.55;;;;;;;11.81;100.00;103380.16;4916665;29;20037;-49
2022/02/26 08:04:37;;;;;;;80.28;16.65;;;;;;;12.00;100.00;103375.78;4910658;29;20060;-49
2022/02/26 08:07:03;;;;;;;49.72;15.73;;;;;;;12.12;100.00;103374.66;4909553;29;20073;-50
2022/02/26 08:09:30;;;;;;;;;;;;;;;12.07;100.00;103376.94;4918311;29;20041;-48
2022/02/26 08:11:57;;;;;;;82.95;15.77;;;;;;;11.90;100.00;103381.97;4905911;29;20024;-49
2022/02/26 08:14:22;;;;;;;51.65;15.43;;;;;;;12.05;100.00;103382.41;4915096;29;20033;-52
2022/02/26 08:16:48;;;;;;;44.03;14.95;;;;;;;12.07;100.00;103382.28;4912490;29;20070;-51
2022/02/26 08:19:14;;;;;;;94.72;18.08;;;;;;;11.99;100.00;103384.78;4908021;29;20033;-51
2022/02/26 08:21:40;;;;;;;38.17;16.40;;;;;;;12.14;100.00;103386.09;4917689;29;20126;-49
2022/02/26 08:24:06;;;;;;;30.95;14.27;;;;;;;12.05;99.47;103395.00;4906421;29;20047;-51
2022/02/26 08:26:33;;;;;;;85.28;17.77;;;;;;;12.08;100.00;103402.75;4912869;29;20041;-53
2022/02/26 08:28:59;;;;;;;52.05;16.67;;;;;;;12.21;99.75;103394.41;4913496;29;20036;-49
2022/02/26 08:31:25;;;;;;;53.85;16.83;;;;;;;12.22;100.00;103400.59;4906508;29;20116;-49
2022/02/26 08:33:50;;;;;;;64.55;16.13;;;;;;;12.17;99.32;103403.75;4917428;29;20104;-49
2022/02/26 08:36:16;;;;;;;85.60;16.07;;;;;;;12.10;97.68;103406.13;4907337;29;20069;-47
2022/02/26 08:38:41;;;;;;;56.28;14.48;;;;;;;12.24;99.59;103399.47;4911769;29;20037;-52
2022/02/26 08:41:07;;;;;;;60.70;15.77;;;;;;;12.07;97.30;103395.69;4906324;29;20068;-52
2022/02/26 08:43:32;;;;;;;137.50;17.17;;;;;;;11.85;96.71;103413.75;4913308;29;20036;-46
2022/02/26 08:45:58;;;;;;;116.07;17.37;;;;;;;11.84;100.00;103419.22;4910977;29;20037;-48
2022/02/26 08:48:24;;;;;;;57.67;18.60;;;;;;;11.86;100.00;103410.06;4910640;29;20057;-48
2022/02/26 08:50:50;;;;;;;105.93;19.37;;;;;;;12.30;100.00;103403.44;4907171;29;20036;-48
2022/02/26 08:53:16;;;;;;;120.60;20.92;;;;;;;12.54;100.00;103407.47;4914769;29;20051;-52
2022/02/26 08:55:42;;;;;;;65.70;19.33;;;;;;;12.87;94.35;103413.28;4904549;29;20084;-50
2022/02/26 08:58:08;;;;;;;61.40;18.77;;;;;;;13.01;95.94;103415.50;4915952;29;20045;-54
2022/02/26 09:00:33;;;;;;;80.53;16.67;;;;;;;13.21;90.46;103404.66;4909301;29;20123;-54
2022/02/26 09:03:00;;;;;;;38.22;20.00;;;;;;;13.62;92.40;103410.53;4909288;29;20033;-51
2022/02/26 09:05:25;;;;;;;46.83;18.23;;;;;;;13.87;86.89;103413.44;4915598;29;20072;-50
2022/02/26 09:07:50;;;;;;;66.47;19.30;;;;;;;14.15;89.69;103415.16;4904470;29;20343;-47
2022/02/26 09:10:16;;;;;;;33.27;15.97;;;;;;;14.60;85.11;103413.28;4914773;29;20037;-52
2022/02/26 09:12:42;;;;;;;27.93;17.03;;;;;;;14.97;80.80;103412.16;4909983;29;20055;-52
2022/02/26 09:15:08;;;;;;;33.83;16.73;;;;;;;15.27;73.80;103417.16;4907819;29;20037;-48
2022/02/26 09:17:34;;;;;;;25.67;16.83;;;;;;;15.58;74.89;103413.88;4916782;29;20036;-51
2022/02/26 09:19:59;;;;;;;31.73;15.20;;;;;;;16.28;72.31;103411.72;4904040;29;20079;-51
2022/02/26 09:22:25;;;;;;;26.48;14.93;;;;;;;16.39;65.78;103415.91;4920031;29;20043;-51
2022/02/26 09:24:50;;;;;;;23.07;14.57;;;;;;;17.09;64.84;103418.94;4909756;29;20044;-50
2022/02/26 09:27:15;;;;;;;18.70;13.40;;;;;;;17.56;60.66;103418.00;4913924;29;20070;-51
2022/02/26 09:29:41;;;;;;;22.07;12.73;;;;;;;18.12;54.41;103416.06;4904033;29;20469;-50
2022/02/26 09:32:07;;;;;;;21.80;11.88;;;;;;;18.30;54.11;103423.84;4915594;29;20049;-53
2022/02/26 09:34:33;;;;;;;23.20;12.20;;;;;;;18.40;52.42;103418.16;4892393;29;20088;-50
2022/02/26 09:36:59;;;;;;;20.85;12.00;;;;;;;18.54;52.55;103428.16;4908901;29;20041;-49
2022/02/26 09:39:25;;;;;;;20.47;10.60;;;;;;;19.01;52.15;103422.56;4914654;29;20064;-53
2022/02/26 09:41:51;;;;;;;16.38;11.13;;;;;;;20.04;49.50;103422.41;4903909;29;20148;-53
2022/02/26 09:44:19;;;;;;;17.58;11.38;;;;;;;20.65;47.45;103422.81;4911920;29;20048;-52
2022/02/26 09:46:44;;;;;;;16.97;11.90;;;;;;;21.15;45.53;103417.22;4909316;29;20036;-51
2022/02/26 09:49:10;;;;;;;23.45;10.73;;;;;;;21.92;43.02;103425.13;4909328;29;20263;-49
2022/02/26 09:51:41;;;;;;;24.25;11.82;;;;;;;22.06;41.71;103416.94;4908018;29;20069;-51
2022/02/26 09:54:07;;;;;;;23.47;12.10;;;;;;;22.12;41.21;103416.09;4909591;29;20032;-55
2022/02/26 09:56:33;;;;;;;19.63;12.38;;;;;;;22.17;40.49;103419.03;4907823;29;20282;-50
2022/02/26 09:58:58;;;;;;;19.35;11.07;;;;;;;22.73;40.11;103419.56;4903007;29;20040;-51
2022/02/26 10:01:24;;;;;;;20.80;12.13;;;;;;;23.06;39.09;103437.69;4919483;29;20048;-51
2022/02/26 10:03:49;;;;;;;24.85;12.48;;;;;;;23.32;39.05;103440.53;4903223;29;20139;-50
2022/02/26 10:06:17;;;;;;;22.85;11.88;;;;;;;23.04;38.55;103433.50;4918980;29;20037;-51
2022/02/26 10:08:43;;;;;;;17.20;11.50;;;;;;;23.90;38.12;103438.69;4910287;29;20065;-51
2022/02/26 10:11:24;;;;;;;23.52;12.02;;;;;;;23.55;38.54;103429.06;4912321;29;20103;-51
2022/02/26 10:13:51;;;;;;;19.53;11.50;;;;;;;24.33;37.35;103431.56;4917196;29;20068;-48
2022/02/26 10:16:16;;;;;;;20.37;11.07;;;;;;;24.61;36.97;103427.47;4905300;29;20064;-49
2022/02/26 10:18:54;;;;;;;25.00;10.18;;;;;;;24.23;37.94;103434.00;4910373;29;20037;-51
2022/02/26 10:21:32;;;;;;;17.90;9.57;;;;;;;24.89;36.78;103432.44;4913443;29;20080;-50
2022/02/26 10:23:58;;;;;;;24.67;11.10;;;;;;;25.23;35.83;103426.50;4902954;29;20032;-54
2022/02/26 10:26:26;;;;;;;22.83;8.27;;;;;;;25.20;34.44;103419.59;4912504;29;20045;-49
2022/02/26 10:29:06;;;;;;;21.07;7.53;;;;;;;24.63;35.86;103422.63;4906739;29;20041;-50
2022/02/26 10:31:49;;;;;;;15.40;6.07;;;;;;;22.93;36.73;103432.28;4910249;29;20029;-49
2022/02/26 10:34:32;;;;;;;16.67;6.47;;;;;;;22.91;36.53;103423.50;4907489;29;20029;-52
2022/02/26 10:37:09;;;;;;;20.93;6.40;;;;;;;22.57;37.50;103420.88;4909663;29;20122;-52
2022/02/26 10:39:43;;;;;;;19.87;7.03;;;;;;;22.68;37.74;103415.81;4893362;29;20099;-49
2022/02/26 10:42:16;;;;;;;23.10;7.67;;;;;;;23.80;35.74;103414.59;4909391;29;20072;-51
2022/02/26 10:44:42;;;;;;;24.40;7.40;;;;;;;22.90;35.91;103411.72;4893657;29;20561;-49
2022/02/26 10:47:11;;;;;;;20.42;6.68;;;;;;;23.70;34.66;103422.41;4908873;29;20041;-50
2022/02/26 10:49:44;;;;;;;13.10;5.63;;;;;;;21.13;37.55;103404.84;4908677;29;20040;-50
2022/02/26 10:52:12;;;;;;;18.03;6.23;;;;;;;21.69;37.00;103405.66;4909183;29;20037;-50
2022/02/26 10:54:38;;;;;;;20.37;6.87;;;;;;;22.65;36.32;103400.72;4910828;29;20125;-51
2022/02/26 10:57:05;;;;;;;;;;;;;;;23.01;34.50;103406.66;4908540;29;20060;-50
2022/02/26 10:59:42;;;;;;;22.53;6.10;;;;;;;23.83;33.41;103410.53;4892812;29;19953;-53
2022/02/26 11:02:22;;;;;;;16.77;5.00;;;;;;;24.16;31.75;103410.28;4908864;29;20098;-53
2022/02/26 11:04:49;;;;;;;18.40;4.47;;;;;;;21.45;34.57;103399.69;4909300;29;20044;-53
2022/02/26 11:07:16;;;;;;;19.33;5.17;;;;;;;21.78;35.10;103415.28;4909359;29;20084;-54
2022/02/26 11:09:45;;;;;;;17.92;4.97;;;;;;;23.34;33.16;103405.66;4907897;29;20041;-53